Time;durP1;ratioP1;P1;durP2;ratioP2;P2;SDS_P1;SDS_P2;PMS_P1;PMS_P2;Temp;Humidity;BMP_temperature;BMP_pressure;BME280_temperature;BME280_humidity;BME280_pressure;Samples;Min_cycle;Max_cycle;Signal;HPM_P1;HPM_P2
2023/04/28 00:02:01;;;;;;;;;;;;;;;8.88;64.46;101374.56;4984594;28;19914;-47
2023/04/28 00:04:26;;;;;;;;;;;;;;;8.86;64.58;101378.75;4978287;28;19920;-50
2023/04/28 00:06:51;;;;;;;;;;;;;;;8.86;62.96;101365.94;4983924;28;19924;-47
2023/04/28 00:09:16;;;;;;;;;;;;;;;8.83;64.43;101366.66;4986210;28;19921;-48
2023/04/28 00:11:45;;;;;;;;;;;;;;;8.78;65.02;101354.47;4990114;28;19917;-48
2023/04/28 00:14:11;;;;;;;;;;;;;;;8.78;63.74;101363.03;4988721;28;19958;-49
2023/04/28 00:16:36;;;;;;;;;;;;;;;8.74;65.88;101360.28;4986967;28;19922;-51
2023/04/28 00:19:01;;;;;;;;;;;;;;;8.71;66.43;101368.69;4984841;28;19929;-48
2023/04/28 00:21:27;;;;;;;;;;;;;;;8.71;65.57;101362.69;4981548;28;20372;-50
2023/04/28 00:23:52;;;;;;;;;;;;;;;8.62;65.79;101355.50;4981359;28;19918;-47
2023/04/28 00:26:18;;;;;;;;;;;;;;;8.58;66.24;101366.41;4983010;28;20402;-47
2023/04/28 00:28:43;;;;;;;;;;;;;;;8.56;67.97;101358.69;4985559;28;19957;-48
2023/04/28 00:31:15;;;;;;;;;;;;;;;8.56;65.99;101347.53;4982805;28;19922;-48
2023/04/28 00:33:40;;;;;;;;;;;;;;;8.51;68.52;101334.53;4985528;28;19922;-48
2023/04/28 00:36:06;;;;;;;;;;;;;;;8.46;68.72;101336.00;4984925;28;19925;-48
2023/04/28 00:38:31;;;;;;;;;;;;;;;8.42;68.23;101341.78;4986795;28;19934;-48
2023/04/28 00:40:56;;;;;;;;;;;;;;;8.35;69.07;101332.03;4987421;28;20046;-51
2023/04/28 00:43:22;;;;;;;;;;;;;;;8.29;71.44;101324.97;4989130;28;19967;-51
2023/04/28 00:45:50;;;;;;;;;;;;;;;8.24;72.70;101323.00;4988466;28;19922;-48
2023/04/28 00:48:16;;;;;;;;;;;;;;;8.22;71.28;101315.25;4986420;28;19963;-47
2023/04/28 00:50:42;;;;;;;;;;;;;;;8.15;74.75;101327.72;4988379;28;19921;-47
2023/04/28 00:53:07;;;;;;;;;;;;;;;8.12;74.71;101336.13;4977491;28;20001;-48
2023/04/28 00:55:33;;;;;;;;;;;;;;;8.09;75.60;101324.88;4984144;28;20017;-48
2023/04/28 00:57:59;;;;;;;;;;;;;;;8.07;72.45;101315.47;4979777;28;19944;-48
2023/04/28 01:00:24;;;;;;;;;;;;;;;8.09;71.20;101305.28;4982532;28;20327;-48
2023/04/28 01:02:51;;;;;;;;;;;;;;;8.03;71.51;101303.31;4977352;28;20343;-51
2023/04/28 01:05:17;;;;;;;;;;;;;;;8.02;72.20;101299.00;4981779;28;19913;-49
2023/04/28 01:07:42;;;;;;;;;;;;;;;7.97;77.10;101295.34;4988243;28;19970;-48
2023/04/28 01:10:07;;;;;;;;;;;;;;;7.91;77.26;101300.19;4985874;28;19953;-46
2023/04/28 01:12:32;;;;;;;;;;;;;;;7.88;76.13;101297.47;4984339;28;19922;-43
2023/04/28 01:14:58;;;;;;;;;;;;;;;7.92;75.19;101290.81;4983638;28;19926;-42
2023/04/28 01:17:23;;;;;;;;;;;;;;;7.92;76.48;101290.81;4987689;28;19924;-44
2023/04/28 01:19:48;;;;;;;;;;;;;;;7.89;76.54;101283.03;4988327;28;20472;-45
2023/04/28 01:22:15;;;;;;;;;;;;;;;7.83;76.71;101267.38;4985414;28;19991;-44
2023/04/28 01:24:40;;;;;;;;;;;;;;;7.88;76.14;101255.63;4979937;28;20334;-44
2023/04/28 01:27:05;;;;;;;;;;;;;;;7.89;76.97;101260.84;4985107;28;19967;-44
2023/04/28 01:29:31;;;;;;;;;;;;;;;7.84;78.03;101254.63;4981186;28;19922;-43
2023/04/28 01:31:56;;;;;;;;;;;;;;;7.82;80.50;101261.34;4986213;28;19969;-45
2023/04/28 01:34:21;;;;;;;;;;;;;;;7.79;81.08;101253.56;4982022;28;19919;-43
2023/04/28 01:36:46;;;;;;;;;;;;;;;7.76;80.11;101261.94;4985528;28;19917;-44
2023/04/28 01:39:12;;;;;;;;;;;;;;;7.82;77.79;101265.59;4982795;28;20429;-43
2023/04/28 01:41:38;;;;;;;;;;;;;;;7.79;80.56;101251.00;4981847;28;19922;-43
2023/04/28 01:44:04;;;;;;;;;;;;;;;7.81;79.76;101249.38;4978992;28;20292;-44
2023/04/28 01:46:30;;;;;;;;;;;;;;;7.78;77.62;101245.00;4984511;28;19918;-44
2023/04/28 01:48:55;;;;;;;;;;;;;;;7.77;77.30;101242.38;4987841;28;19982;-44
2023/04/28 01:51:20;;;;;;;;;;;;;;;7.80;78.75;101242.50;4985976;28;19969;-43
2023/04/28 01:53:45;;;;;;;;;;;;;;;7.77;81.29;101237.25;4980757;28;19925;-43
2023/04/28 01:56:11;;;;;;;;;;;;;;;7.84;78.81;101223.91;4980398;28;19926;-43
2023/04/28 01:58:36;;;;;;;;;;;;;;;7.82;79.01;101228.06;5070935;28;19918;-45
2023/04/28 02:01:02;;;;;;;;;;;;;;;7.79;80.47;101223.69;4984638;28;19975;-45
2023/04/28 02:03:27;;;;;;;;;;;;;;;7.78;79.92;101223.63;4986157;28;19914;-44
2023/04/28 02:05:52;;;;;;;;;;;;;;;7.77;79.69;101227.88;4986804;28;19925;-45
2023/04/28 02:08:18;;;;;;;;;;;;;;;7.74;78.59;101237.09;4987765;28;19930;-42
2023/04/28 02:10:43;;;;;;;;;;;;;;;7.76;82.47;101230.34;4990066;28;19918;-44
2023/04/28 02:13:09;;;;;;;;;;;;;;;7.76;82.87;101232.91;4990639;28;19921;-44
2023/04/28 02:15:38;;;;;;;;;;;;;;;7.78;81.12;101226.19;4989769;28;19921;-44
2023/04/28 02:18:03;;;;;;;;;;;;;;;7.77;82.45;101230.44;4983750;28;20308;-43
2023/04/28 02:20:29;;;;;;;;;;;;;;;7.82;80.95;101215.28;4987224;28;20392;-47
2023/04/28 02:22:54;;;;;;;;;;;;;;;7.75;83.19;101209.00;4990508;28;19967;-48
2023/04/28 02:25:19;;;;;;;;;;;;;;;7.75;84.00;101200.44;4986722;28;20399;-49
2023/04/28 02:27:45;;;;;;;;;;;;;;;7.74;83.18;101199.56;4981555;28;19919;-48
2023/04/28 02:30:10;;;;;;;;;;;;;;;7.74;83.69;101185.91;4978509;28;19918;-48
2023/04/28 02:32:35;;;;;;;;;;;;;;;7.73;84.34;101190.16;4976923;28;19918;-49
2023/04/28 02:35:01;;;;;;;;;;;;;;;7.73;83.64;101181.59;4978018;28;19937;-47
2023/04/28 02:37:26;;;;;;;;;;;;;;;7.74;83.07;101181.66;4979880;28;19918;-48
2023/04/28 02:39:52;;;;;;;;;;;;;;;7.65;83.53;101176.16;4979441;28;20459;-48
2023/04/28 02:42:17;;;;;;;;;;;;;;;7.72;83.47;101172.16;4981282;28;19918;-51
2023/04/28 02:44:42;;;;;;;;;;;;;;;7.63;86.31;101158.94;4978870;28;20390;-48
2023/04/28 02:47:08;;;;;;;;;;;;;;;7.64;84.41;101159.00;4986956;28;19922;-44
2023/04/28 02:49:33;;;;;;;;;;;;;;;7.65;85.20;101144.56;4989221;28;19925;-44
2023/04/28 02:51:58;;;;;;;;;;;;;;;7.66;84.68;101142.06;4991107;28;19922;-45
2023/04/28 02:54:26;;;;;;;;;;;;;;;7.64;87.09;101142.78;4982877;28;19979;-46
2023/04/28 02:56:53;;;;;;;;;;;;;;;7.68;85.72;101147.25;4982494;28;19965;-42
2023/04/28 02:59:18;;;;;;;;;;;;;;;7.67;87.29;101137.81;4986750;28;19928;-45
2023/04/28 03:01:44;;;;;;;;;;;;;;;7.66;88.00;101136.06;4981484;28;19914;-45
2023/04/28 03:04:09;;;;;;;;;;;;;;;7.69;85.67;101141.31;4986240;28;20380;-44
2023/04/28 03:06:34;;;;;;;;;;;;;;;7.64;87.95;101133.41;4984783;28;19922;-45
2023/04/28 03:08:59;;;;;;;;;;;;;;;7.72;86.16;101141.47;4989322;28;19936;-45
2023/04/28 03:11:24;;;;;;;;;;;;;;;7.73;85.73;101144.06;4985674;28;19929;-44
2023/04/28 03:13:50;;;;;;;;;;;;;;;7.68;89.38;101143.00;4987873;28;19925;-47
2023/04/28 03:16:15;;;;;;;;;;;;;;;7.71;88.07;101142.28;4990218;28;19922;-43
2023/04/28 03:18:40;;;;;;;;;;;;;;;7.73;87.74;101138.09;4983480;28;19925;-44
2023/04/28 03:21:06;;;;;;;;;;;;;;;7.75;87.69;101137.31;4987650;28;19922;-47
2023/04/28 03:23:31;;;;;;;;;;;;;;;7.74;87.11;101132.16;4987372;28;19922;-43
2023/04/28 03:25:56;;;;;;;;;;;;;;;7.80;86.91;101134.97;4998206;28;19949;-43
2023/04/28 03:28:21;;;;;;;;;;;;;;;7.76;86.55;101133.94;4992863;28;19925;-44
2023/04/28 03:30:47;;;;;;;;;;;;;;;7.78;88.49;101141.72;5007522;28;19927;-44
2023/04/28 03:33:12;;;;;;;;;;;;;;;7.74;89.01;101138.13;4996576;28;19987;-44
2023/04/28 03:35:37;;;;;;;;;;;;;;;7.77;86.46;101129.75;4994414;28;20031;-44
2023/04/28 03:38:02;;;;;;;;;;;;;;;7.77;86.91;101124.63;5000212;28;19918;-45
2023/04/28 03:40:27;;;;;;;;;;;;;;;7.77;87.20;101125.50;4992312;28;19979;-45
2023/04/28 03:42:53;;;;;;;;;;;;;;;7.82;87.68;101122.22;4992409;28;19935;-44
2023/04/28 03:45:18;;;;;;;;;;;;;;;7.85;87.95;101127.50;4991108;28;19997;-44
2023/04/28 03:47:44;;;;;;;;;;;;;;;7.83;89.34;101118.88;4992195;28;19929;-44
2023/04/28 03:50:09;;;;;;;;;;;;;;;7.83;89.66;101126.56;4994543;28;19925;-44
2023/04/28 03:52:34;;;;;;;;;;;;;;;7.84;88.56;101118.06;4994584;28;19914;-45
2023/04/28 03:54:59;;;;;;;;;;;;;;;7.83;89.68;101121.44;4986821;28;20018;-44
2023/04/28 03:57:25;;;;;;;;;;;;;;;7.86;91.04;101132.69;4985152;28;20384;-44
2023/04/28 03:59:50;;;;;;;;;;;;;;;7.87;89.15;101118.19;5009161;28;19924;-44
2023/04/28 04:02:16;;;;;;;;;;;;;;;7.86;92.26;101121.56;4997550;28;20004;-48
2023/04/28 04:04:41;;;;;;;;;;;;;;;7.85;90.13;101113.00;4999101;28;19926;-44
2023/04/28 04:07:06;;;;;;;;;;;;;;;7.85;88.67;101101.91;4990247;28;20311;-43
2023/04/28 04:09:32;;;;;;;;;;;;;;;7.84;91.73;101105.28;4992849;28;19976;-43
2023/04/28 04:11:57;;;;;;;;;;;;;;;7.87;91.33;101106.25;4989101;28;19967;-46
2023/04/28 04:14:22;;;;;;;;;;;;;;;7.87;91.59;101102.81;5005824;28;19929;-47
2023/04/28 04:16:48;;;;;;;;;;;;;;;7.84;91.75;101106.16;4999435;28;19926;-44
2023/04/28 04:19:13;;;;;;;;;;;;;;;7.86;91.72;101096.84;4991946;28;19926;-43
2023/04/28 04:21:38;;;;;;;;;;;;;;;7.84;94.42;101098.47;4988193;28;19921;-45
2023/04/28 04:24:04;;;;;;;;;;;;;;;7.84;92.99;101097.59;4991939;28;20013;-43
2023/04/28 04:26:29;;;;;;;;;;;;;;;7.84;92.32;101097.59;5014345;28;20368;-42
2023/04/28 04:28:54;;;;;;;;;;;;;;;7.84;92.30;101095.91;4987128;28;19934;-44
2023/04/28 04:31:21;;;;;;;;;;;;;;;7.87;93.37;101095.16;4983250;28;20612;-45
2023/04/28 04:33:47;;;;;;;;;;;;;;;7.90;92.78;101096.16;5011442;28;19943;-44
2023/04/28 04:36:12;;;;;;;;;;;;;;;7.92;94.21;101102.22;4993326;28;19964;-44
2023/04/28 04:38:37;;;;;;;;;;;;;;;7.94;95.21;101102.28;4991090;28;19929;-44
2023/04/28 04:41:02;;;;;;;;;;;;;;;7.99;93.72;101100.78;4992935;28;20407;-44
2023/04/28 04:43:28;;;;;;;;;;;;;;;7.96;94.88;101091.31;5026896;28;19925;-43
2023/04/28 04:45:53;;;;;;;;;;;;;;;8.02;93.14;101086.44;4993254;28;19918;-44
2023/04/28 04:48:18;;;;;;;;;;;;;;;7.99;94.45;101078.63;4995545;28;20197;-44
2023/04/28 04:50:44;;;;;;;;;;;;;;;7.98;94.87;101076.88;5004562;28;20001;-45
2023/04/28 04:53:09;;;;;;;;;;;;;;;7.97;94.11;101077.69;4990168;28;20296;-44
2023/04/28 04:55:34;;;;;;;;;;;;;;;8.00;94.87;101075.25;4990838;28;20031;-46
2023/04/28 04:58:00;;;;;;;;;;;;;;;8.05;97.19;101075.44;4994361;28;19921;-50
2023/04/28 05:00:25;;;;;;;;;;;;;;;8.02;96.05;101075.31;5018498;28;19917;-49
2023/04/28 05:02:50;;;;;;;;;;;;;;;8.02;99.05;101073.63;4989194;28;20001;-49
2023/04/28 05:05:16;;;;;;;;;;;;;;;8.06;95.62;101072.94;4987763;28;20410;-48
2023/04/28 05:07:41;;;;;;;;;;;;;;;8.05;96.86;101075.44;4992106;28;19986;-50
2023/04/28 05:10:07;;;;;;;;;;;;;;;8.10;97.27;101068.81;4991478;28;19918;-51
2023/04/28 05:12:32;;;;;;;;;;;;;;;8.20;96.30;101063.28;4999695;28;19928;-49
2023/04/28 05:14:57;;;;;;;;;;;;;;;8.25;96.40;101053.19;5004228;28;20031;-49
2023/04/28 05:17:23;;;;;;;;;;;;;;;8.32;97.09;101055.22;4991828;28;19967;-51
2023/04/28 05:19:48;;;;;;;;;;;;;;;8.36;97.54;101046.84;4986895;28;19925;-47
2023/04/28 05:22:13;;;;;;;;;;;;;;;8.40;97.23;101043.59;4991328;28;20392;-50
2023/04/28 05:24:38;;;;;;;;;;;;;;;8.46;96.86;101042.97;4987865;28;19983;-50
2023/04/28 05:27:04;;;;;;;;;;;;;;;8.48;98.07;101039.66;4997998;28;19949;-49
2023/04/28 05:29:29;;;;;;;;;;;;;;;8.49;96.76;101043.06;4993576;28;19944;-48
2023/04/28 05:31:54;;;;;;;;;;;;;;;8.53;99.60;101042.41;4991576;28;19924;-48
2023/04/28 05:34:20;;;;;;;;;;;;;;;8.60;99.87;101046.94;4990259;28;20003;-52
2023/04/28 05:36:45;;;;;;;;;;;;;;;8.64;99.12;101048.81;4987704;28;19922;-51
2023/04/28 05:39:10;;;;;;;;;;;;;;;8.73;98.57;101050.84;4979460;28;20706;-51
2023/04/28 05:41:36;;;;;;;;;;;;;;;8.76;97.52;101050.97;5009581;28;19918;-47
2023/04/28 05:44:01;;;;;;;;;;;;;;;8.81;99.21;101044.34;4992482;28;19988;-48
2023/04/28 05:46:26;;;;;;;;;;;;;;;8.86;100.00;101045.41;5002665;28;19929;-47
2023/04/28 05:48:52;;;;;;;;;;;;;;;8.94;99.47;101041.41;4994511;28;20439;-48
2023/04/28 05:51:17;;;;;;;;;;;;;;;8.92;98.93;101048.19;4994444;28;20534;-49
2023/04/28 05:53:42;;;;;;;;;;;;;;;8.95;99.40;101045.72;5000418;28;19929;-51
2023/04/28 05:56:07;;;;;;;;;;;;;;;8.98;99.45;101056.13;4993227;28;19930;-49
2023/04/28 05:58:33;;;;;;;;;;;;;;;9.04;98.93;101045.19;5005280;28;20016;-48
2023/04/28 06:00:58;;;;;;;;;;;;;;;9.04;99.58;101051.22;4999719;28;19914;-49
2023/04/28 06:03:24;;;;;;;;;;;;;;;9.17;98.01;101051.66;4999060;28;19945;-48
2023/04/28 06:05:49;;;;;;;;;;;;;;;9.17;99.27;101041.41;4999275;28;20022;-48
2023/04/28 06:08:14;;;;;;;;;;;;;;;9.24;98.69;101039.09;4989680;28;19928;-49
2023/04/28 06:10:40;;;;;;;;;;;;;;;9.23;99.42;101051.88;5047677;28;19939;-48
2023/04/28 06:13:05;;;;;;;;;;;;;;;9.26;100.00;101057.13;4996970;28;19918;-47
2023/04/28 06:15:31;;;;;;;;;;;;;;;9.31;100.00;101058.16;4993183;28;20020;-50
2023/04/28 06:17:57;;;;;;;;;;;;;;;9.36;98.21;101056.63;4993677;28;19918;-51
2023/04/28 06:20:23;;;;;;;;;;;;;;;9.43;100.00;101056.03;5001072;28;19987;-50
2023/04/28 06:22:48;;;;;;;;;;;;;;;9.51;100.00;101046.91;5016887;28;19920;-52
2023/04/28 06:25:13;;;;;;;;;;;;;;;9.57;98.97;101051.38;4999466;28;19953;-52
2023/04/28 06:27:39;;;;;;;;;;;;;;;9.65;99.78;101045.72;5001506;28;20472;-51
2023/04/28 06:30:04;;;;;;;;;;;;;;;9.76;100.00;101053.75;5026183;28;19916;-47
2023/04/28 06:32:29;;;;;;;;;;;;;;;9.87;100.00;101046.41;4992535;28;19923;-48
2023/04/28 06:34:55;;;;;;;;;;;;;;;9.87;100.00;101047.28;4992668;28;19924;-48
2023/04/28 06:37:20;;;;;;;;;;;;;;;9.86;100.00;101057.53;4996218;28;19921;-49
2023/04/28 06:39:45;;;;;;;;;;;;;;;9.88;100.00;101053.31;4993858;28;20630;-48
2023/04/28 06:42:11;;;;;;;;;;;;;;;9.88;100.00;101059.31;4994849;28;19980;-49
2023/04/28 06:44:36;;;;;;;;;;;;;;;9.91;100.00;101066.25;4983227;28;19917;-47
2023/04/28 06:47:01;;;;;;;;;;;;;;;9.92;100.00;101058.59;4974904;28;19922;-49
2023/04/28 06:49:27;;;;;;;;;;;;;;;9.95;100.00;101060.41;4976278;28;20012;-47
2023/04/28 06:51:52;;;;;;;;;;;;;;;9.96;100.00;101051.00;4978538;28;19945;-48
2023/04/28 06:54:17;;;;;;;;;;;;;;;10.01;100.00;101050.34;4982335;28;20401;-47
2023/04/28 06:56:43;;;;;;;;;;;;;;;10.07;99.54;101037.69;4997876;28;19952;-48
2023/04/28 06:59:08;;;;;;;;;;;;;;;10.13;100.00;101039.56;4987280;28;19913;-50
2023/04/28 07:01:34;;;;;;;;;;;;;;;10.18;100.00;101030.31;4987332;28;19922;-48
2023/04/28 07:03:59;;;;;;;;;;;;;;;10.21;100.00;101033.00;4989973;28;20238;-50
2023/04/28 07:06:26;;;;;;;;;;;;;;;10.18;100.00;101026.06;4987034;28;19944;-51
2023/04/28 07:08:51;;;;;;;;;;;;;;;10.26;100.00;101025.47;4988204;28;19922;-48
2023/04/28 07:11:16;;;;;;;;;;;;;;;10.28;100.00;101023.81;4982500;28;20422;-48
2023/04/28 07:13:42;;;;;;;;;;;;;;;10.31;100.00;101023.91;4987639;28;19922;-47
2023/04/28 07:16:09;;;;;;;;;;;;;;;10.35;100.00;101028.31;4984076;28;19926;-47
2023/04/28 07:18:34;;;;;;;;;;;;;;;10.36;100.00;101019.78;4990135;28;20258;-48
2023/04/28 07:20:59;;;;;;;;;;;;;;;10.38;100.00;101011.31;4986467;28;20410;-50
2023/04/28 07:23:25;;;;;;;;;;;;;;;10.43;100.00;101006.28;4985603;28;19924;-50
2023/04/28 07:25:50;;;;;;;;;;;;;;;10.51;100.00;101017.69;4987833;28;19914;-48
2023/04/28 07:28:16;;;;;;;;;;;;;;;10.59;100.00;101016.22;4988969;28;19918;-51
2023/04/28 07:30:41;;;;;;;;;;;;;;;10.67;100.00;101019.88;4983423;28;19962;-51
2023/04/28 07:33:06;;;;;;;;;;;;;;;10.82;100.00;101019.50;4984980;28;19925;-50
2023/04/28 07:35:32;;;;;;;;;;;;;;;10.87;100.00;101019.63;4981330;28;19945;-48
2023/04/28 07:37:57;;;;;;;;;;;;;;;10.91;100.00;101021.44;4982192;28;19917;-51
2023/04/28 07:40:22;;;;;;;;;;;;;;;10.91;100.00;101032.59;4981498;28;19923;-51
2023/04/28 07:42:48;;;;;;;;;;;;;;;10.90;100.00;101035.16;4980982;28;19918;-52
2023/04/28 07:45:15;;;;;;;;;;;;;;;10.94;100.00;101035.28;4989673;28;19922;-51
2023/04/28 07:47:40;;;;;;;;;;;;;;;10.98;100.00;101042.28;4988163;28;19929;-51
2023/04/28 07:50:06;;;;;;;;;;;;;;;11.01;100.00;101038.91;4981747;28;20403;-47
2023/04/28 07:52:32;;;;;;;;;;;;;;;11.06;100.00;101031.34;4984903;28;20376;-47
2023/04/28 07:54:57;;;;;;;;;;;;;;;11.12;100.00;101032.38;4983600;28;19926;-51
2023/04/28 07:57:23;;;;;;;;;;;;;;;11.16;100.00;101035.88;5000290;28;19914;-50
2023/04/28 07:59:49;;;;;;;;;;;;;;;11.22;100.00;101033.50;4986026;28;20385;-49
2023/04/28 08:02:14;;;;;;;;;;;;;;;11.28;100.00;101031.09;4987360;28;19957;-49
2023/04/28 08:04:39;;;;;;;;;;;;;;;11.35;100.00;101032.16;4987084;28;19918;-49
2023/04/28 08:07:05;;;;;;;;;;;;;;;11.37;100.00;101035.63;4986884;28;19949;-49
2023/04/28 08:09:30;;;;;;;;;;;;;;;11.43;100.00;101025.50;4984047;28;19990;-50
2023/04/28 08:11:57;;;;;;;;;;;;;;;11.38;100.00;101027.06;4985470;28;19922;-51
2023/04/28 08:14:23;;;;;;;;;;;;;;;11.37;100.00;101022.75;4986253;28;19921;-51
2023/04/28 08:16:48;;;;;;;;;;;;;;;11.39;100.00;101021.09;4983496;28;20042;-48
2023/04/28 08:19:14;;;;;;;;;;;;;;;11.46;100.00;101026.44;4980371;28;19922;-50
2023/04/28 08:21:39;;;;;;;;;;;;;;;11.55;100.00;101020.69;4982492;28;20000;-50
2023/04/28 08:24:04;;;;;;;;;;;;;;;11.59;100.00;101027.66;4985847;28;20008;-48
2023/04/28 08:26:30;;;;;;;;;;;;;;;11.64;100.00;101025.19;4982688;28;19975;-47
2023/04/28 08:28:55;;;;;;;;;;;;;;;11.65;100.00;101029.50;4987022;28;19924;-50
2023/04/28 08:31:21;;;;;;;;;;;;;;;11.71;100.00;101027.09;4982866;28;20368;-47
2023/04/28 08:33:48;;;;;;;;;;;;;;;11.74;100.00;101030.63;4982773;28;19918;-51
2023/04/28 08:36:14;;;;;;;;;;;;;;;11.81;100.00;101035.13;4981452;28;20384;-48
2023/04/28 08:38:40;;;;;;;;;;;;;;;11.87;100.00;101031.84;4985541;28;19928;-48
2023/04/28 08:41:05;;;;;;;;;;;;;;;11.89;100.00;101024.16;4985570;28;20398;-48
2023/04/28 08:43:34;;;;;;;;;;;;;;;11.89;100.00;101027.63;4987487;28;19924;-48
2023/04/28 08:46:04;;;;;;;;;;;;;;;11.89;100.00;101024.16;4985442;28;20668;-47
2023/04/28 08:48:30;;;;;;;;;;;;;;;11.92;100.00;101019.09;4984511;28;20300;-50
2023/04/28 08:50:56;;;;;;;;;;;;;;;11.97;100.00;101023.53;4985138;28;19918;-49
2023/04/28 08:53:24;;;;;;;;;;;;;;;12.05;100.00;101028.84;4981747;28;20493;-49
2023/04/28 08:55:56;;;;;;;;;;;;;;;12.14;100.00;101031.66;4990452;28;19921;-51
2023/04/28 08:58:25;;;;;;;;;;;;;;;12.18;100.00;101032.59;4984899;28;20296;-49
2023/04/28 09:00:51;;;;;;;;;;;;;;;12.19;100.00;101030.06;4989175;28;19918;-50
2023/04/28 09:03:17;;;;;;;;;;;;;;;12.20;100.00;101029.25;4984144;28;19921;-51
2023/04/28 09:05:42;;;;;;;;;;;;;;;12.20;100.00;101034.41;4985669;28;19941;-51
2023/04/28 09:08:08;;;;;;;;;;;;;;;12.21;100.00;101033.56;4978937;28;19930;-51
2023/04/28 09:10:33;;;;;;;;;;;;;;;12.17;100.00;101034.31;4984930;28;20451;-49
2023/04/28 09:12:58;;;;;;;;;;;;;;;12.19;100.00;101036.91;4981404;28;19937;-49
2023/04/28 09:15:31;;;;;;;;;;;;;;;12.25;100.00;101039.63;4983855;28;19922;-50
2023/04/28 09:17:57;;;;;;;;;;;;;;;12.32;100.00;101028.66;4979509;28;19918;-51
2023/04/28 09:20:23;;;;;;;;;;;;;;;12.44;100.00;101030.66;4981520;28;19917;-49
2023/04/28 09:22:49;;;;;;;;;;;;;;;12.59;100.00;101025.84;4977046;28;19926;-51
2023/04/28 09:25:15;;;;;;;;;;;;;;;12.67;100.00;101023.41;4981948;28;19970;-51
2023/04/28 09:27:40;;;;;;;;;;;;;;;12.74;100.00;101020.13;4986552;28;20480;-51
2023/04/28 09:30:06;;;;;;;;;;;;;;;12.73;100.00;101028.72;4982638;28;19922;-47
2023/04/28 09:32:31;;;;;;;;;;;;;;;12.74;100.00;101031.34;4983338;28;19930;-45
2023/04/28 09:34:56;;;;;;;;;;;;;;;12.70;100.00;101028.66;4984811;28;19922;-45
2023/04/28 09:37:35;;;;;;;;;;;;;;;12.69;100.00;101026.91;4983224;28;20352;-46
2023/04/28 09:40:07;;;;;;;;;;;;;;;12.68;100.00;101030.31;4985446;28;19925;-43
2023/04/28 09:42:34;;;;;;;;;;;;;;;12.72;100.00;101026.97;4983843;28;19980;-45
2023/04/28 09:45:01;;;;;;;;;;;;;;;12.75;100.00;101029.63;4981879;28;19957;-44
2023/04/28 09:47:26;;;;;;;;;;;;;;;12.81;100.00;101033.22;4982629;28;20387;-46
2023/04/28 09:49:53;;;;;;;;;;;;;;;12.82;100.00;101029.78;4981942;28;19918;-47
2023/04/28 09:52:19;;;;;;;;;;;;;;;12.88;100.00;101026.47;4979345;28;19976;-43
2023/04/28 09:54:45;;;;;;;;;;;;;;;13.00;100.00;101028.44;4981702;28;20309;-48
2023/04/28 09:57:10;;;;;;;;;;;;;;;13.11;100.00;101037.28;4995778;28;19926;-44
2023/04/28 09:59:36;;;;;;;;;;;;;;;13.18;100.00;101031.41;4986536;28;19913;-45
2023/04/28 10:02:03;;;;;;;;;;;;;;;13.26;100.00;101036.75;4984965;28;19991;-44
2023/04/28 10:04:32;;;;;;;;;;;;;;;13.34;100.00;101035.16;4980927;28;19925;-46
2023/04/28 10:06:58;;;;;;;;;;;;;;;13.39;100.00;101036.13;4980013;28;19917;-47
2023/04/28 10:09:25;;;;;;;;;;;;;;;13.39;100.00;101026.66;4980712;28;19922;-44
2023/04/28 10:11:51;;;;;;;;;;;;;;;13.44;100.00;101028.47;4979811;28;19979;-48
2023/04/28 10:14:17;;;;;;;;;;;;;;;13.53;100.00;101029.53;4980434;28;20027;-48
2023/04/28 10:16:43;;;;;;;;;;;;;;;13.55;100.00;101030.44;4978905;28;20289;-44
2023/04/28 10:19:09;;;;;;;;;;;;;;;13.57;100.00;101030.44;4981436;28;19944;-45
2023/04/28 10:21:39;;;;;;;;;;;;;;;13.57;100.00;101030.44;4985237;28;19914;-43
2023/04/28 10:24:09;;;;;;;;;;;;;;;13.68;100.00;101031.50;4987287;28;19918;-45
2023/04/28 10:26:52;;;;;;;;;;;;;;;13.78;100.00;101029.97;4990116;28;19928;-43
2023/04/28 10:29:23;;;;;;;;;;;;;;;13.87;100.00;101032.72;4989770;28;19918;-46
2023/04/28 10:32:07;;;;;;;;;;;;;;;13.91;100.00;101030.22;4990120;28;20012;-45
2023/04/28 10:34:32;;;;;;;;;;;;;;;13.95;100.00;101026.84;4982103;28;19951;-44
2023/04/28 10:36:58;;;;;;;;;;;;;;;13.95;100.00;101034.59;4980921;28;19929;-45
2023/04/28 10:39:23;;;;;;;;;;;;;;;13.92;100.00;101029.34;4983836;28;19967;-45
2023/04/28 10:41:48;;;;;;;;;;;;;;;13.90;100.00;101028.47;4986455;28;20419;-45
2023/04/28 10:44:29;;;;;;;;;;;;;;;13.85;100.00;101024.94;4986663;28;19922;-45
2023/04/28 10:46:57;;;;;;;;;;;;;;;13.78;100.00;101027.41;4977580;28;19924;-47
2023/04/28 10:49:42;;;;;;;;;;;;;;;13.76;100.00;101023.91;4987064;28;20300;-46
2023/04/28 10:52:26;;;;;;;;;;;;;;;13.85;100.00;101024.06;4982351;28;19922;-48
2023/04/28 10:55:10;;;;;;;;;;;;;;;13.93;100.00;101025.94;4983833;28;19990;-47
2023/04/28 10:57:36;;;;;;;;;;;;;;;13.97;100.00;101020.81;4998274;28;19921;-44
2023/04/28 11:00:25;;;;;;;;;;;;;;;14.04;100.00;101020.06;4985777;28;19922;-46
2023/04/28 11:02:51;;;;;;;;;;;;;;;14.11;100.00;101020.19;4984865;28;19922;-46
2023/04/28 11:05:17;;;;;;;;;;;;;;;14.18;100.00;101021.16;4985311;28;19918;-48
2023/04/28 11:08:03;;;;;;;;;;;;;;;14.25;100.00;101014.34;4983849;28;20388;-47
2023/04/28 11:10:48;;;;;;;;;;;;;;;14.30;100.00;101017.88;4983045;28;19945;-46
2023/04/28 11:13:26;;;;;;;;;;;;;;;14.27;100.00;101013.56;4981875;28;20333;-46
2023/04/28 11:16:04;;;;;;;;;;;;;;;14.23;100.00;101015.22;4979987;28;19933;-45
2023/04/28 11:18:40;;;;;;;;;;;;;;;14.23;100.00;101016.94;4986464;28;20318;-44
2023/04/28 11:21:05;;;;;;;;;;;;;;;14.19;100.00;101009.97;4984261;28;19918;-45
2023/04/28 11:23:30;;;;;;;;;;;;;;;14.17;100.00;101009.06;4988184;28;19926;-44
2023/04/28 11:25:56;;;;;;;;;;;;;;;14.17;100.00;101016.84;4986480;28;20418;-45
2023/04/28 11:28:22;;;;;;;;;;;;;;;14.14;100.00;101006.47;4987637;28;19922;-45
2023/04/28 11:30:47;;;;;;;;;;;;;;;14.09;100.00;101010.69;4982462;28;19928;-46
2023/04/28 11:33:12;;;;;;;;;;;;;;;14.06;100.00;101006.31;4987672;28;20744;-45
2023/04/28 11:35:40;;;;;;;;;;;;;;;14.02;100.00;101004.53;4984422;28;20273;-44
2023/04/28 11:38:06;;;;;;;;;;;;;;;14.02;100.00;101014.03;4983803;28;19924;-44
2023/04/28 11:40:31;;;;;;;;;;;;;;;14.03;100.00;101008.88;4984506;28;19922;-44
2023/04/28 11:42:58;;;;;;;;;;;;;;;14.05;100.00;101014.06;4985089;28;20016;-46
2023/04/28 11:45:23;;;;;;;;;;;;;;;14.04;100.00;101013.19;4978177;28;20359;-45
2023/04/28 11:47:49;;;;;;;;;;;;;;;14.02;100.00;101009.72;4978832;28;19918;-45
2023/04/28 11:50:14;;;;;;;;;;;;;;;14.01;100.00;101014.84;4978727;28;20523;-45
2023/04/28 11:52:50;;;;;;;;;;;;;;;14.00;100.00;101026.03;4983360;28;20347;-45
2023/04/28 11:55:15;;;;;;;;;;;;;;;13.97;100.00;101023.41;4982191;28;19934;-44
2023/04/28 11:57:41;;;;;;;;;;;;;;;13.95;100.00;101020.78;4995541;28;19924;-47
2023/04/28 12:00:13;;;;;;;;;;;;;;;13.98;100.00;101026.00;4981441;28;20465;-45
2023/04/28 12:02:38;;;;;;;;;;;;;;;14.03;100.00;101028.69;4988529;28;19953;-43
2023/04/28 12:05:07;;;;;;;;;;;;;;;14.02;100.00;101022.66;4978238;28;20343;-44
2023/04/28 12:07:41;;;;;;;;;;;;;;;14.08;100.00;101032.22;4985191;28;19918;-44
2023/04/28 12:10:10;;;;;;;;;;;;;;;14.08;100.00;101034.81;4980967;28;19918;-47
2023/04/28 12:12:36;;;;;;;;;;;;;;;14.08;100.00;101035.66;4984373;28;20283;-44
2023/04/28 12:15:06;;;;;;;;;;;;;;;14.05;100.00;101038.19;4983620;28;20013;-50
2023/04/28 12:17:36;;;;;;;;;;;;;;;14.03;100.00;101037.31;4987081;28;19963;-49
2023/04/28 12:20:02;;;;;;;;;;;;;;;13.98;100.00;101031.19;4983360;28;20403;-48
2023/04/28 12:22:28;;;;;;;;;;;;;;;13.95;100.00;101026.84;4983291;28;20296;-47
2023/04/28 12:25:04;;;;;;;;;;;;;;;14.00;100.00;101055.34;4987614;28;20368;-50
2023/04/28 12:27:30;;;;;;;;;;;;;;;13.99;100.00;101047.56;4986632;28;19902;-50
2023/04/28 12:29:57;;;;;;;;;;;;;;;13.92;100.00;101062.97;4985631;28;19918;-49
2023/04/28 12:32:38;;;;;;;;;;;;;;;13.75;100.00;101066.97;4980787;28;19961;-49
2023/04/28 12:35:04;;;;;;;;;;;;;;;13.61;100.00;101066.72;4984087;28;19969;-50